sensor_id;sensor_type;location;lat;lon;timestamp;pressure;altitude;pressure_sealevel;temperature;humidity
47738;BME280;33502;47.182;27.506;2023-01-30T00:00:14;100576.59;;;-2.91;100.00
47738;BME280;33502;47.182;27.506;2023-01-30T00:02:40;100583.44;;;-2.95;100.00
47738;BME280;33502;47.182;27.506;2023-01-30T00:05:05;100586.91;;;-2.96;100.00
47738;BME280;33502;47.182;27.506;2023-01-30T00:07:31;100586.88;;;-2.97;100.00
47738;BME280;33502;47.182;27.506;2023-01-30T00:09:57;100579.09;;;-2.97;100.00
47738;BME280;33502;47.182;27.506;2023-01-30T00:12:23;100586.84;;;-2.99;100.00
47738;BME280;33502;47.182;27.506;2023-01-30T00:14:48;100589.41;;;-2.99;100.00
47738;BME280;33502;47.182;27.506;2023-01-30T00:17:14;100579.91;;;-2.98;100.00
47738;BME280;33502;47.182;27.506;2023-01-30T00:19:40;100579.06;;;-2.99;100.00
47738;BME280;33502;47.182;27.506;2023-01-30T00:22:05;100592.03;;;-2.97;100.00
47738;BME280;33502;47.182;27.506;2023-01-30T00:24:31;100586.03;;;-2.96;100.00
47738;BME280;33502;47.182;27.506;2023-01-30T00:26:56;100582.59;;;-2.93;100.00
47738;BME280;33502;47.182;27.506;2023-01-30T00:29:22;100585.25;;;-2.89;100.00
47738;BME280;33502;47.182;27.506;2023-01-30T00:31:48;100586.13;;;-2.90;100.00
47738;BME280;33502;47.182;27.506;2023-01-30T00:34:15;100585.25;;;-2.89;100.00
47738;BME280;33502;47.182;27.506;2023-01-30T00:36:41;100577.44;;;-2.90;100.00
47738;BME280;33502;47.182;27.506;2023-01-30T00:39:06;100568.78;;;-2.92;100.00
47738;BME280;33502;47.182;27.506;2023-01-30T00:41:32;100562.72;;;-2.96;100.00
47738;BME280;33502;47.182;27.506;2023-01-30T00:44:16;100562.66;;;-2.99;100.00
47738;BME280;33502;47.182;27.506;2023-01-30T00:47:00;100553.09;;;-3.03;100.00
47738;BME280;33502;47.182;27.506;2023-01-30T00:49:34;100545.22;;;-3.08;100.00
47738;BME280;33502;47.182;27.506;2023-01-30T00:52:00;100547.72;;;-3.14;100.00
47738;BME280;33502;47.182;27.506;2023-01-30T00:54:25;100545.94;;;-3.18;100.00
47738;BME280;33502;47.182;27.506;2023-01-30T00:56:51;100545.88;;;-3.21;100.00
47738;BME280;33502;47.182;27.506;2023-01-30T00:59:17;100542.38;;;-3.25;100.00
47738;BME280;33502;47.182;27.506;2023-01-30T01:01:44;100541.47;;;-3.25;100.00
47738;BME280;33502;47.182;27.506;2023-01-30T01:04:09;100550.16;;;-3.25;100.00
47738;BME280;33502;47.182;27.506;2023-01-30T01:06:35;100535.56;;;-3.18;100.00
47738;BME280;33502;47.182;27.506;2023-01-30T01:09:01;100531.28;;;-3.16;100.00
47738;BME280;33502;47.182;27.506;2023-01-30T01:11:28;100532.97;;;-3.18;100.00
47738;BME280;33502;47.182;27.506;2023-01-30T01:13:54;100535.50;;;-3.21;100.00
47738;BME280;33502;47.182;27.506;2023-01-30T01:16:21;100533.72;;;-3.25;100.00
47738;BME280;33502;47.182;27.506;2023-01-30T01:18:46;100527.66;;;-3.26;100.00
47738;BME280;33502;47.182;27.506;2023-01-30T01:21:12;100531.94;;;-3.29;100.00
47738;BME280;33502;47.182;27.506;2023-01-30T01:23:38;100530.19;;;-3.30;100.00
47738;BME280;33502;47.182;27.506;2023-01-30T01:26:04;100530.06;;;-3.37;100.00
47738;BME280;33502;47.182;27.506;2023-01-30T01:28:29;100532.56;;;-3.43;100.00
47738;BME280;33502;47.182;27.506;2023-01-30T01:30:55;100530.72;;;-3.48;100.00
47738;BME280;33502;47.182;27.506;2023-01-30T01:33:25;100527.19;;;-3.54;100.00
47738;BME280;33502;47.182;27.506;2023-01-30T01:35:54;100523.56;;;-3.63;100.00
47738;BME280;33502;47.182;27.506;2023-01-30T01:38:21;100534.56;;;-3.75;100.00
47738;BME280;33502;47.182;27.506;2023-01-30T01:40:46;100536.00;;;-3.91;100.00
47738;BME280;33502;47.182;27.506;2023-01-30T01:43:28;100526.19;;;-4.07;100.00
47738;BME280;33502;47.182;27.506;2023-01-30T01:46:09;100524.94;;;-4.26;100.00
47738;BME280;33502;47.182;27.506;2023-01-30T01:48:43;100516.00;;;-4.42;100.00
47738;BME280;33502;47.182;27.506;2023-01-30T01:51:12;100526.22;;;-4.48;100.00
47738;BME280;33502;47.182;27.506;2023-01-30T01:53:41;100521.88;;;-4.49;100.00
47738;BME280;33502;47.182;27.506;2023-01-30T01:56:08;100513.28;;;-4.48;100.00
47738;BME280;33502;47.182;27.506;2023-01-30T01:58:38;100507.41;;;-4.41;100.00
47738;BME280;33502;47.182;27.506;2023-01-30T02:01:06;100501.47;;;-4.36;100.00
47738;BME280;33502;47.182;27.506;2023-01-30T02:03:33;100512.72;;;-4.35;100.00
47738;BME280;33502;47.182;27.506;2023-01-30T02:06:02;100506.63;;;-4.37;100.00
47738;BME280;33502;47.182;27.506;2023-01-30T02:08:37;100503.16;;;-4.39;100.00
47738;BME280;33502;47.182;27.506;2023-01-30T02:13:36;100494.56;;;-4.37;100.00
47738;BME280;33502;47.182;27.506;2023-01-30T02:16:03;100502.47;;;-4.29;100.00
47738;BME280;33502;47.182;27.506;2023-01-30T02:18:29;100504.31;;;-4.23;100.00
47738;BME280;33502;47.182;27.506;2023-01-30T02:37:02;100487.09;;;-4.23;100.00
47738;BME280;33502;47.182;27.506;2023-01-30T02:39:35;100481.00;;;-4.25;100.00
47738;BME280;33502;47.182;27.506;2023-01-30T02:42:07;100482.69;;;-4.27;100.00
47738;BME280;33502;47.182;27.506;2023-01-30T02:44:44;100472.34;;;-4.27;100.00
47738;BME280;33502;47.182;27.506;2023-01-30T02:47:16;100474.13;;;-4.26;100.00
47738;BME280;33502;47.182;27.506;2023-01-30T02:49:57;100473.28;;;-4.23;100.00
47738;BME280;33502;47.182;27.506;2023-01-30T02:52:25;100467.31;;;-4.21;100.00
47738;BME280;33502;47.182;27.506;2023-01-30T02:54:52;100465.59;;;-4.20;100.00
47738;BME280;33502;47.182;27.506;2023-01-30T02:57:21;100468.19;;;-4.19;100.00
47738;BME280;33502;47.182;27.506;2023-01-30T02:59:51;100463.88;;;-4.20;100.00
47738;BME280;33502;47.182;27.506;2023-01-30T03:17:54;100446.69;;;-4.18;100.00
47738;BME280;33502;47.182;27.506;2023-01-30T03:20:20;100455.28;;;-4.19;100.00
47738;BME280;33502;47.182;27.506;2023-01-30T03:22:46;100450.06;;;-4.22;100.00
47738;BME280;33502;47.182;27.506;2023-01-30T03:25:13;100454.38;;;-4.21;100.00
47738;BME280;33502;47.182;27.506;2023-01-30T03:27:40;100452.66;;;-4.22;100.00
47738;BME280;33502;47.182;27.506;2023-01-30T03:30:06;100455.22;;;-4.22;100.00
47738;BME280;33502;47.182;27.506;2023-01-30T03:32:32;100450.06;;;-4.22;100.00
47738;BME280;33502;47.182;27.506;2023-01-30T03:34:58;100455.22;;;-4.22;100.00
47738;BME280;33502;47.182;27.506;2023-01-30T03:37:25;100435.41;;;-4.21;100.00
47738;BME280;33502;47.182;27.506;2023-01-30T03:39:51;100439.75;;;-4.20;100.00
47738;BME280;33502;47.182;27.506;2023-01-30T03:42:17;100441.47;;;-4.19;100.00
47738;BME280;33502;47.182;27.506;2023-01-30T03:44:43;100437.13;;;-4.22;100.00
47738;BME280;33502;47.182;27.506;2023-01-30T03:47:09;100429.34;;;-4.23;100.00
47738;BME280;33502;47.182;27.506;2023-01-30T03:49:34;100428.47;;;-4.24;100.00
47738;BME280;33502;47.182;27.506;2023-01-30T03:52:01;100424.09;;;-4.26;100.00
47738;BME280;33502;47.182;27.506;2023-01-30T03:54:26;100433.56;;;-4.27;100.00
47738;BME280;33502;47.182;27.506;2023-01-30T03:56:53;100420.63;;;-4.28;100.00
47738;BME280;33502;47.182;27.506;2023-01-30T03:59:19;100416.31;;;-4.29;100.00
47738;BME280;33502;47.182;27.506;2023-01-30T04:01:51;100415.41;;;-4.30;100.00
47738;BME280;33502;47.182;27.506;2023-01-30T04:04:17;100407.66;;;-4.31;100.00
47738;BME280;33502;47.182;27.506;2023-01-30T04:06:43;100407.63;;;-4.33;100.00
47738;BME280;33502;47.182;27.506;2023-01-30T04:09:09;100404.13;;;-4.35;100.00
47738;BME280;33502;47.182;27.506;2023-01-30T04:11:39;100401.47;;;-4.38;100.00
47738;BME280;33502;47.182;27.506;2023-01-30T04:14:05;100401.44;;;-4.40;100.00
47738;BME280;33502;47.182;27.506;2023-01-30T04:16:35;100401.44;;;-4.40;100.00
47738;BME280;33502;47.182;27.506;2023-01-30T04:19:20;100403.94;;;-4.44;100.00
47738;BME280;33502;47.182;27.506;2023-01-30T04:21:45;100402.94;;;-4.51;100.00
47738;BME280;33502;47.182;27.506;2023-01-30T04:24:11;100396.78;;;-4.58;100.00
47738;BME280;33502;47.182;27.506;2023-01-30T04:26:37;100396.59;;;-4.67;100.00
47738;BME280;33502;47.182;27.506;2023-01-30T04:29:03;100386.94;;;-4.77;100.00
47738;BME280;33502;47.182;27.506;2023-01-30T04:31:29;100388.34;;;-4.92;100.00
47738;BME280;33502;47.182;27.506;2023-01-30T04:34:11;100389.69;;;-5.09;100.00
47738;BME280;33502;47.182;27.506;2023-01-30T04:36:36;100380.72;;;-5.26;100.00
47738;BME280;33502;47.182;27.506;2023-01-30T04:39:02;100389.78;;;-5.44;100.00
47738;BME280;33502;47.182;27.506;2023-01-30T04:41:31;100381.56;;;-5.64;100.00
47738;BME280;33502;47.182;27.506;2023-01-30T04:43:59;100388.00;;;-5.83;100.00
47738;BME280;33502;47.182;27.506;2023-01-30T04:46:48;100381.59;;;-6.00;100.00
47738;BME280;33502;47.182;27.506;2023-01-30T04:49:14;100377.84;;;-6.12;100.00
47738;BME280;33502;47.182;27.506;2023-01-30T04:51:41;100384.38;;;-6.26;100.00
47738;BME280;33502;47.182;27.506;2023-01-30T04:54:07;100388.38;;;-6.37;100.00
47738;BME280;33502;47.182;27.506;2023-01-30T04:56:33;100376.91;;;-6.48;100.00
47738;BME280;33502;47.182;27.506;2023-01-30T04:58:59;100377.50;;;-6.57;100.00
47738;BME280;33502;47.182;27.506;2023-01-30T05:01:35;100369.56;;;-6.66;100.00
47738;BME280;33502;47.182;27.506;2023-01-30T05:04:01;100376.31;;;-6.70;100.00
47738;BME280;33502;47.182;27.506;2023-01-30T05:06:27;100372.75;;;-6.75;100.00
47738;BME280;33502;47.182;27.506;2023-01-30T05:08:53;100373.50;;;-6.79;100.00
47738;BME280;33502;47.182;27.506;2023-01-30T05:11:19;100370.78;;;-6.84;100.00
47738;BME280;33502;47.182;27.506;2023-01-30T05:13:46;100376.75;;;-6.85;100.00
47738;BME280;33502;47.182;27.506;2023-01-30T05:16:12;100369.84;;;-6.87;100.00
47738;BME280;33502;47.182;27.506;2023-01-30T05:18:38;100368.91;;;-6.90;100.00
47738;BME280;33502;47.182;27.506;2023-01-30T05:21:05;100368.81;;;-6.93;100.00
47738;BME280;33502;47.182;27.506;2023-01-30T05:23:31;100357.50;;;-6.98;100.00
47738;BME280;33502;47.182;27.506;2023-01-30T05:25:57;100359.22;;;-6.98;100.00
47738;BME280;33502;47.182;27.506;2023-01-30T05:28:22;100365.22;;;-6.98;100.00
47738;BME280;33502;47.182;27.506;2023-01-30T05:30:48;100364.69;;;-6.86;100.00
47738;BME280;33502;47.182;27.506;2023-01-30T05:33:13;100363.28;;;-6.76;100.00
47738;BME280;33502;47.182;27.506;2023-01-30T05:35:44;100359.06;;;-6.73;100.00
47738;BME280;33502;47.182;27.506;2023-01-30T05:38:10;100360.78;;;-6.73;100.00
47738;BME280;33502;47.182;27.506;2023-01-30T05:40:35;100363.28;;;-6.76;100.00
47738;BME280;33502;47.182;27.506;2023-01-30T05:43:01;100350.19;;;-6.84;100.00
47738;BME280;33502;47.182;27.506;2023-01-30T05:45:27;100349.25;;;-6.86;100.00
47738;BME280;33502;47.182;27.506;2023-01-30T05:47:52;100353.59;;;-6.85;100.00
47738;BME280;33502;47.182;27.506;2023-01-30T05:50:18;100354.56;;;-6.81;100.00
47738;BME280;33502;47.182;27.506;2023-01-30T05:52:44;100356.44;;;-6.76;100.00
47738;BME280;33502;47.182;27.506;2023-01-30T05:55:09;100352.31;;;-6.69;100.00
47738;BME280;33502;47.182;27.506;2023-01-30T05:57:35;100351.69;;;-6.60;100.00
47738;BME280;33502;47.182;27.506;2023-01-30T06:00:00;100345.06;;;-6.51;100.00
47738;BME280;33502;47.182;27.506;2023-01-30T06:02:26;100341.69;;;-6.48;100.00
47738;BME280;33502;47.182;27.506;2023-01-30T06:04:52;100349.63;;;-6.42;100.00
47738;BME280;33502;47.182;27.506;2023-01-30T06:07:17;100351.59;;;-6.32;100.00
47738;BME280;33502;47.182;27.506;2023-01-30T06:09:43;100344.25;;;-5.80;100.00
47738;BME280;33502;47.182;27.506;2023-01-30T06:12:08;100338.56;;;-4.84;100.00
47738;BME280;33502;47.182;27.506;2023-01-30T06:14:34;100331.63;;;-3.91;100.00
47738;BME280;33502;47.182;27.506;2023-01-30T06:16:59;100328.34;;;-3.20;100.00
47738;BME280;33502;47.182;27.506;2023-01-30T06:19:25;100322.19;;;-2.54;100.00
47738;BME280;33502;47.182;27.506;2023-01-30T06:21:51;100315.03;;;-1.87;100.00
47738;BME280;33502;47.182;27.506;2023-01-30T06:24:16;100315.56;;;-0.96;100.00
47738;BME280;33502;47.182;27.506;2023-01-30T06:26:42;100304.50;;;-0.06;100.00
47738;BME280;33502;47.182;27.506;2023-01-30T06:29:07;100303.50;;;0.75;100.00
47738;BME280;33502;47.182;27.506;2023-01-30T06:31:33;100310.16;;;1.43;100.00
47738;BME280;33502;47.182;27.506;2023-01-30T06:33:59;100311.59;;;1.91;100.00
47738;BME280;33502;47.182;27.506;2023-01-30T06:36:24;100311.00;;;2.58;100.00
47738;BME280;33502;47.182;27.506;2023-01-30T06:38:50;100311.38;;;3.06;100.00
47738;BME280;33502;47.182;27.506;2023-01-30T06:41:15;100305.09;;;3.18;99.44
47738;BME280;33502;47.182;27.506;2023-01-30T06:43:41;100303.78;;;4.08;99.25
47738;BME280;33502;47.182;27.506;2023-01-30T06:46:06;100296.50;;;4.74;88.14
47738;BME280;33502;47.182;27.506;2023-01-30T06:48:32;100295.81;;;5.08;87.71
47738;BME280;33502;47.182;27.506;2023-01-30T06:50:58;100295.22;;;5.75;84.35
47738;BME280;33502;47.182;27.506;2023-01-30T06:53:23;100301.91;;;6.27;77.17
47738;BME280;33502;47.182;27.506;2023-01-30T06:55:55;100295.66;;;6.95;71.01
47738;BME280;33502;47.182;27.506;2023-01-30T06:58:20;100288.91;;;7.16;71.40
47738;BME280;33502;47.182;27.506;2023-01-30T07:00:46;100293.84;;;7.29;67.52
47738;BME280;33502;47.182;27.506;2023-01-30T07:03:12;100287.81;;;7.55;66.18
47738;BME280;33502;47.182;27.506;2023-01-30T07:05:39;100287.47;;;8.19;63.44
47738;BME280;33502;47.182;27.506;2023-01-30T07:08:04;100286.50;;;8.21;61.53
47738;BME280;33502;47.182;27.506;2023-01-30T07:10:31;100283.91;;;7.67;61.30
47738;BME280;33502;47.182;27.506;2023-01-30T07:12:57;100289.13;;;7.40;61.63
47738;BME280;33502;47.182;27.506;2023-01-30T07:15:22;100287.94;;;6.89;61.96
47738;BME280;33502;47.182;27.506;2023-01-30T07:17:48;100284.41;;;7.21;61.70
47738;BME280;33502;47.182;27.506;2023-01-30T07:20:14;100278.47;;;7.43;59.66
47738;BME280;33502;47.182;27.506;2023-01-30T07:22:40;100277.81;;;7.36;59.03
47738;BME280;33502;47.182;27.506;2023-01-30T07:25:05;100273.19;;;7.43;60.17
47738;BME280;33502;47.182;27.506;2023-01-30T07:27:31;100274.00;;;8.01;59.09
47738;BME280;33502;47.182;27.506;2023-01-30T07:29:57;100266.69;;;9.10;56.58
47738;BME280;33502;47.182;27.506;2023-01-30T07:32:22;100264.38;;;9.48;54.12
47738;BME280;33502;47.182;27.506;2023-01-30T07:34:48;100255.75;;;9.87;51.77
47738;BME280;33502;47.182;27.506;2023-01-30T07:37:14;100257.03;;;9.33;52.71
47738;BME280;33502;47.182;27.506;2023-01-30T07:39:39;100258.81;;;9.09;51.55
47738;BME280;33502;47.182;27.506;2023-01-30T07:42:05;100252.84;;;9.49;52.64
47738;BME280;33502;47.182;27.506;2023-01-30T07:44:31;100256.16;;;9.98;50.29
47738;BME280;33502;47.182;27.506;2023-01-30T07:46:58;100248.56;;;10.54;48.17
47738;BME280;33502;47.182;27.506;2023-01-30T07:49:25;100250.53;;;10.69;47.34
47738;BME280;33502;47.182;27.506;2023-01-30T07:51:51;100242.75;;;10.66;46.99
47738;BME280;33502;47.182;27.506;2023-01-30T07:54:16;100232.00;;;10.08;47.83
47738;BME280;33502;47.182;27.506;2023-01-30T07:56:42;100226.09;;;10.22;47.93
47738;BME280;33502;47.182;27.506;2023-01-30T07:59:08;100225.00;;;10.68;46.86
47738;BME280;33502;47.182;27.506;2023-01-30T08:01:35;100218.41;;;10.77;45.64
47738;BME280;33502;47.182;27.506;2023-01-30T08:04:00;100219.16;;;10.19;46.84
47738;BME280;33502;47.182;27.506;2023-01-30T08:06:26;100204.06;;;10.21;47.13
47738;BME280;33502;47.182;27.506;2023-01-30T08:08:51;100207.41;;;10.47;47.18
47738;BME280;33502;47.182;27.506;2023-01-30T08:11:17;100195.53;;;11.14;44.79
47738;BME280;33502;47.182;27.506;2023-01-30T08:13:43;100197.22;;;10.77;45.69
47738;BME280;33502;47.182;27.506;2023-01-30T08:16:08;100188.13;;;10.83;45.42
47738;BME280;33502;47.182;27.506;2023-01-30T08:18:34;100187.63;;;11.31;45.01
47738;BME280;33502;47.182;27.506;2023-01-30T08:21:00;100188.19;;;11.38;44.22
47738;BME280;33502;47.182;27.506;2023-01-30T08:23:26;100185.28;;;11.06;44.08
47738;BME280;33502;47.182;27.506;2023-01-30T08:25:58;100178.47;;;9.80;45.71
47738;BME280;33502;47.182;27.506;2023-01-30T08:28:24;100183.78;;;9.58;47.47
47738;BME280;33502;47.182;27.506;2023-01-30T08:30:50;100181.97;;;9.15;47.98
47738;BME280;33502;47.182;27.506;2023-01-30T08:33:17;100181.72;;;8.27;50.00
47738;BME280;33502;47.182;27.506;2023-01-30T08:35:43;100184.81;;;8.38;50.49
47738;BME280;33502;47.182;27.506;2023-01-30T08:38:09;100174.50;;;8.07;51.17
47738;BME280;33502;47.182;27.506;2023-01-30T08:40:35;100171.22;;;7.47;52.77
47738;BME280;33502;47.182;27.506;2023-01-30T08:43:00;100161.72;;;6.86;54.98
47738;BME280;33502;47.182;27.506;2023-01-30T08:45:26;100170.59;;;6.52;56.62
47738;BME280;33502;47.182;27.506;2023-01-30T08:47:52;100161.53;;;5.64;59.49
47738;BME280;33502;47.182;27.506;2023-01-30T08:50:17;100152.22;;;5.13;61.90
47738;BME280;33502;47.182;27.506;2023-01-30T08:52:43;100152.00;;;4.41;64.79
47738;BME280;33502;47.182;27.506;2023-01-30T08:55:09;100148.47;;;4.45;65.82
47738;BME280;33502;47.182;27.506;2023-01-30T08:57:35;100143.47;;;3.88;68.98
47738;BME280;33502;47.182;27.506;2023-01-30T09:00:00;100141.94;;;3.75;70.38
47738;BME280;33502;47.182;27.506;2023-01-30T09:02:26;100142.50;;;3.92;69.79
47738;BME280;33502;47.182;27.506;2023-01-30T09:04:52;100134.13;;;3.71;72.15
47738;BME280;33502;47.182;27.506;2023-01-30T09:07:17;100124.56;;;4.17;70.92
47738;BME280;33502;47.182;27.506;2023-01-30T09:09:43;100114.41;;;4.44;72.47
47738;BME280;33502;47.182;27.506;2023-01-30T09:12:09;100103.66;;;4.12;71.43
47738;BME280;33502;47.182;27.506;2023-01-30T09:14:35;100097.91;;;3.47;75.66
47738;BME280;33502;47.182;27.506;2023-01-30T09:17:00;100080.34;;;3.02;78.63
47738;BME280;33502;47.182;27.506;2023-01-30T09:19:26;100083.63;;;2.56;81.46
47738;BME280;33502;47.182;27.506;2023-01-30T09:21:53;100078.19;;;2.70;84.15
47738;BME280;33502;47.182;27.506;2023-01-30T09:24:19;100069.75;;;3.08;84.64
47738;BME280;33502;47.182;27.506;2023-01-30T09:26:44;100063.47;;;3.20;83.20
47738;BME280;33502;47.182;27.506;2023-01-30T09:29:10;100073.44;;;2.97;83.73
47738;BME280;33502;47.182;27.506;2023-01-30T09:31:36;100056.22;;;2.83;83.25
47738;BME280;33502;47.182;27.506;2023-01-30T09:34:02;100061.78;;;3.16;85.34
47738;BME280;33502;47.182;27.506;2023-01-30T09:36:27;100043.88;;;2.91;84.56
47738;BME280;33502;47.182;27.506;2023-01-30T09:38:53;100035.56;;;2.65;86.39
47738;BME280;33502;47.182;27.506;2023-01-30T09:41:35;100036.09;;;2.29;88.12
47738;BME280;33502;47.182;27.506;2023-01-30T09:44:13;100027.59;;;2.74;87.08
47738;BME280;33502;47.182;27.506;2023-01-30T09:51:49;100011.28;;;3.11;84.82
47738;BME280;33502;47.182;27.506;2023-01-30T09:56:50;99999.91;;;3.13;87.98
47738;BME280;33502;47.182;27.506;2023-01-30T09:59:18;99994.47;;;2.73;86.64
47738;BME280;33502;47.182;27.506;2023-01-30T10:04:13;99978.31;;;2.46;90.46
47738;BME280;33502;47.182;27.506;2023-01-30T10:06:48;99965.28;;;2.99;89.73
47738;BME280;33502;47.182;27.506;2023-01-30T10:09:22;99961.19;;;2.83;89.59
47738;BME280;33502;47.182;27.506;2023-01-30T10:11:55;99950.81;;;2.78;89.03
47738;BME280;33502;47.182;27.506;2023-01-30T10:16:56;99939.06;;;2.52;91.69
47738;BME280;33502;47.182;27.506;2023-01-30T10:19:35;99924.50;;;2.89;89.65
47738;BME280;33502;47.182;27.506;2023-01-30T10:26:57;99905.94;;;2.53;90.81
47738;BME280;33502;47.182;27.506;2023-01-30T10:29:32;99898.22;;;2.45;93.02
47738;BME280;33502;47.182;27.506;2023-01-30T10:32:11;99894.09;;;2.82;90.18
47738;BME280;33502;47.182;27.506;2023-01-30T10:34:39;99884.97;;;3.06;90.65
47738;BME280;33502;47.182;27.506;2023-01-30T10:39:44;99886.16;;;2.88;92.14
47738;BME280;33502;47.182;27.506;2023-01-30T10:42:58;99882.19;;;2.65;91.28
47738;BME280;33502;47.182;27.506;2023-01-30T10:44:59;99865.34;;;2.30;91.88
47738;BME280;33502;47.182;27.506;2023-01-30T10:50:08;99847.78;;;2.39;96.91
47738;BME280;33502;47.182;27.506;2023-01-30T10:58:09;99834.25;;;2.17;94.92
47738;BME280;33502;47.182;27.506;2023-01-30T11:05:23;99809.50;;;2.38;100.00
47738;BME280;33502;47.182;27.506;2023-01-30T11:07:49;99811.81;;;2.54;100.00
47738;BME280;33502;47.182;27.506;2023-01-30T11:10:23;99801.53;;;2.45;100.00
47738;BME280;33502;47.182;27.506;2023-01-30T11:12:59;99801.72;;;2.33;96.97
47738;BME280;33502;47.182;27.506;2023-01-30T11:15:37;99786.50;;;2.57;100.00
47738;BME280;33502;47.182;27.506;2023-01-30T11:18:03;99779.69;;;2.48;100.00
47738;BME280;33502;47.182;27.506;2023-01-30T11:20:30;99771.25;;;2.79;100.00
47738;BME280;33502;47.182;27.506;2023-01-30T11:22:59;99770.41;;;2.78;100.00
47738;BME280;33502;47.182;27.506;2023-01-30T11:25:29;99764.94;;;2.45;100.00
47738;BME280;33502;47.182;27.506;2023-01-30T11:27:55;99762.78;;;2.19;100.00
47738;BME280;33502;47.182;27.506;2023-01-30T11:30:23;99758.50;;;2.15;100.00
47738;BME280;33502;47.182;27.506;2023-01-30T11:32:51;99752.03;;;1.85;100.00
47738;BME280;33502;47.182;27.506;2023-01-30T11:35:28;99746.91;;;1.82;100.00
47738;BME280;33502;47.182;27.506;2023-01-30T11:38:09;99737.91;;;1.98;100.00
47738;BME280;33502;47.182;27.506;2023-01-30T11:40:36;99728.41;;;2.41;100.00
47738;BME280;33502;47.182;27.506;2023-01-30T11:43:04;99722.28;;;2.45;100.00
47738;BME280;33502;47.182;27.506;2023-01-30T11:45:40;99729.13;;;2.50;100.00
47738;BME280;33502;47.182;27.506;2023-01-30T11:48:25;99718.63;;;2.52;100.00
47738;BME280;33502;47.182;27.506;2023-01-30T11:50:57;99704.19;;;2.34;100.00
47738;BME280;33502;47.182;27.506;2023-01-30T11:55:53;99688.00;;;2.13;100.00
47738;BME280;33502;47.182;27.506;2023-01-30T11:58:20;99689.66;;;2.19;100.00
47738;BME280;33502;47.182;27.506;2023-01-30T12:00:46;99675.63;;;2.23;100.00
47738;BME280;33502;47.182;27.506;2023-01-30T12:03:15;99671.91;;;2.35;100.00
47738;BME280;33502;47.182;27.506;2023-01-30T12:05:43;99672.50;;;2.04;100.00
47738;BME280;33502;47.182;27.506;2023-01-30T12:10:41;99664.00;;;2.40;100.00
47738;BME280;33502;47.182;27.506;2023-01-30T12:13:12;99662.91;;;2.51;100.00
47738;BME280;33502;47.182;27.506;2023-01-30T12:15:40;99662.38;;;2.34;100.00
47738;BME280;33502;47.182;27.506;2023-01-30T12:18:22;99650.72;;;2.50;100.00
47738;BME280;33502;47.182;27.506;2023-01-30T12:20:58;99646.88;;;2.67;100.00
47738;BME280;33502;47.182;27.506;2023-01-30T12:30:54;99631.19;;;2.68;100.00
47738;BME280;33502;47.182;27.506;2023-01-30T12:33:21;99621.22;;;2.45;100.00
47738;BME280;33502;47.182;27.506;2023-01-30T12:41:06;99618.75;;;2.38;100.00
47738;BME280;33502;47.182;27.506;2023-01-30T12:43:42;99619.53;;;2.83;100.00
47738;BME280;33502;47.182;27.506;2023-01-30T12:48:54;99611.84;;;3.13;100.00
47738;BME280;33502;47.182;27.506;2023-01-30T13:14:32;99580.53;;;2.33;100.00
47738;BME280;33502;47.182;27.506;2023-01-30T13:17:02;99574.53;;;2.28;100.00
47738;BME280;33502;47.182;27.506;2023-01-30T13:22:04;99555.78;;;2.08;100.00
47738;BME280;33502;47.182;27.506;2023-01-30T13:25:17;99549.66;;;2.10;100.00
47738;BME280;33502;47.182;27.506;2023-01-30T13:27:18;99544.22;;;2.20;100.00
47738;BME280;33502;47.182;27.506;2023-01-30T13:29:45;99544.00;;;2.30;100.00
47738;BME280;33502;47.182;27.506;2023-01-30T13:32:18;99545.97;;;2.19;100.00
47738;BME280;33502;47.182;27.506;2023-01-30T13:34:45;99547.22;;;2.43;100.00
47738;BME280;33502;47.182;27.506;2023-01-30T13:37:13;99543.50;;;2.13;100.00
47738;BME280;33502;47.182;27.506;2023-01-30T13:39:44;99542.16;;;1.93;100.00
47738;BME280;33502;47.182;27.506;2023-01-30T13:44:43;99522.13;;;1.94;100.00
47738;BME280;33502;47.182;27.506;2023-01-30T13:49:43;99509.84;;;1.55;100.00
47738;BME280;33502;47.182;27.506;2023-01-30T13:52:23;99502.50;;;1.29;100.00
47738;BME280;33502;47.182;27.506;2023-01-30T13:54:56;99500.88;;;1.22;100.00
47738;BME280;33502;47.182;27.506;2023-01-30T14:00:33;99494.66;;;1.29;100.00
47738;BME280;33502;47.182;27.506;2023-01-30T14:03:13;99502.66;;;1.20;100.00
47738;BME280;33502;47.182;27.506;2023-01-30T14:08:10;99493.28;;;1.10;100.00
47738;BME280;33502;47.182;27.506;2023-01-30T14:10:36;99490.00;;;0.98;100.00
47738;BME280;33502;47.182;27.506;2023-01-30T14:13:04;99496.34;;;0.82;100.00
47738;BME280;33502;47.182;27.506;2023-01-30T14:15:30;99488.59;;;0.77;100.00
47738;BME280;33502;47.182;27.506;2023-01-30T14:20:22;99487.84;;;0.71;100.00
47738;BME280;33502;47.182;27.506;2023-01-30T14:22:53;99475.69;;;0.71;100.00
47738;BME280;33502;47.182;27.506;2023-01-30T14:33:02;99466.97;;;0.15;100.00
47738;BME280;33502;47.182;27.506;2023-01-30T14:35:31;99464.56;;;-0.01;100.00
47738;BME280;33502;47.182;27.506;2023-01-30T14:40:29;99468.31;;;-0.20;100.00
47738;BME280;33502;47.182;27.506;2023-01-30T14:51:16;99445.47;;;-0.69;100.00
47738;BME280;33502;47.182;27.506;2023-01-30T14:53:50;99449.94;;;-0.81;100.00
47738;BME280;33502;47.182;27.506;2023-01-30T14:56:17;99449.16;;;-0.89;100.00
47738;BME280;33502;47.182;27.506;2023-01-30T14:58:53;99440.59;;;-0.97;100.00
47738;BME280;33502;47.182;27.506;2023-01-30T15:01:24;99438.06;;;-1.06;100.00
47738;BME280;33502;47.182;27.506;2023-01-30T15:03:49;99437.25;;;-1.11;100.00
47738;BME280;33502;47.182;27.506;2023-01-30T15:06:15;99436.41;;;-1.15;100.00
47738;BME280;33502;47.182;27.506;2023-01-30T15:08:41;99423.47;;;-1.21;100.00